createdAt,value
2018-11-13T00:01:01.723Z,8.93
2018-11-13T00:03:37.454Z,8.70
2018-11-13T00:06:05.970Z,7.67
2018-11-13T00:08:34.821Z,8.43
2018-11-13T00:11:03.792Z,7.23
2018-11-13T00:13:32.533Z,8.43
2018-11-13T00:16:01.791Z,10.70
2018-11-13T00:18:38.496Z,7.67
2018-11-13T00:21:07.225Z,9.60
2018-11-13T00:23:36.305Z,8.77
2018-11-13T00:26:05.471Z,8.63
2018-11-13T00:28:34.198Z,10.23
2018-11-13T00:31:02.908Z,7.23
2018-11-13T00:33:31.831Z,7.03
2018-11-13T00:36:00.476Z,10.23
2018-11-13T00:38:30.122Z,7.23
2018-11-13T00:41:00.145Z,10.00
2018-11-13T00:43:28.826Z,9.77
2018-11-13T00:45:57.444Z,9.33
2018-11-13T00:48:28.157Z,11.27
2018-11-13T00:50:57.258Z,9.33
2018-11-13T00:53:27.238Z,12.77
2018-11-13T00:55:55.858Z,9.10
2018-11-13T00:58:24.770Z,10.40
2018-11-13T01:00:54.335Z,11.33
2018-11-13T01:03:23.411Z,9.23
2018-11-13T01:05:52.810Z,10.03
2018-11-13T01:08:21.238Z,10.07
2018-11-13T01:10:49.917Z,10.33
2018-11-13T01:13:18.806Z,10.67
2018-11-13T01:15:48.974Z,15.47
2018-11-13T01:18:17.647Z,10.60
2018-11-13T01:20:47.367Z,11.93
2018-11-13T01:23:16.285Z,13.17
2018-11-13T01:25:54.141Z,11.83
2018-11-13T01:28:22.841Z,15.53
2018-11-13T01:30:52.155Z,12.27
2018-11-13T01:33:24.506Z,11.87
2018-11-13T01:35:54.454Z,12.37
2018-11-13T01:38:43.677Z,16.30
2018-11-13T01:41:17.166Z,13.87
2018-11-13T01:43:53.112Z,19.53
2018-11-13T01:46:22.016Z,18.77
2018-11-13T01:48:54.604Z,14.80
2018-11-13T01:51:33.154Z,13.30
2018-11-13T01:54:03.416Z,17.90
2018-11-13T01:56:32.038Z,16.87
2018-11-13T01:59:00.775Z,16.17
2018-11-13T02:01:29.331Z,17.67
2018-11-13T02:03:58.562Z,19.20
2018-11-13T02:06:28.598Z,18.63
2018-11-13T02:08:58.537Z,18.03
2018-11-13T02:11:27.111Z,19.80
2018-11-13T02:13:55.796Z,17.57
2018-11-13T02:16:24.702Z,21.27
2018-11-13T02:18:55.240Z,16.30
2018-11-13T02:21:24.035Z,17.37
2018-11-13T02:23:53.504Z,21.27
2018-11-13T02:26:25.290Z,19.27
2018-11-13T02:28:54.452Z,19.43
2018-11-13T02:31:23.180Z,16.90
2018-11-13T02:33:52.577Z,17.10
2018-11-13T02:36:21.346Z,17.77
2018-11-13T02:38:50.057Z,24.77
2018-11-13T02:41:18.627Z,20.27
2018-11-13T02:43:48.030Z,21.73
2018-11-13T02:46:17.490Z,20.83
2018-11-13T02:48:46.167Z,18.83
2018-11-13T02:51:15.190Z,19.07
2018-11-13T02:53:46.050Z,21.63
2018-11-13T02:56:16.138Z,18.70
2018-11-13T02:58:48.848Z,19.43
2018-11-13T03:01:17.967Z,20.77
2018-11-13T03:03:47.102Z,18.27
2018-11-13T03:06:15.821Z,20.60
2018-11-13T03:08:46.060Z,22.93
2018-11-13T03:11:16.252Z,19.57
2018-11-13T03:13:45.352Z,19.57
2018-11-13T03:16:14.412Z,19.23
2018-11-13T03:18:43.074Z,21.43
2018-11-13T03:21:11.720Z,21.40
2018-11-13T03:23:40.320Z,21.50
2018-11-13T03:26:10.994Z,23.40
2018-11-13T03:28:43.319Z,22.07
2018-11-13T03:31:12.232Z,26.63
2018-11-13T03:33:41.831Z,21.57
2018-11-13T03:36:10.581Z,22.53
2018-11-13T03:38:40.678Z,25.00
2018-11-13T03:41:10.429Z,21.87
2018-11-13T03:43:39.080Z,20.87
2018-11-13T03:46:08.344Z,23.43
2018-11-13T03:48:37.115Z,25.40
2018-11-13T03:51:05.785Z,20.23
2018-11-13T03:53:34.494Z,22.73
2018-11-13T03:56:03.141Z,23.37
2018-11-13T03:58:32.541Z,27.60
2018-11-13T04:01:01.137Z,29.63
2018-11-13T04:03:33.522Z,25.97
2018-11-13T04:06:03.190Z,27.67
2018-11-13T04:08:31.982Z,27.23
2018-11-13T04:11:02.812Z,24.57
2018-11-13T04:13:35.635Z,23.83
2018-11-13T04:16:04.418Z,21.77
2018-11-13T04:18:33.169Z,22.17
2018-11-13T04:21:02.312Z,24.83
2018-11-13T04:23:31.151Z,20.37
2018-11-13T04:25:59.994Z,21.87
2018-11-13T04:28:28.842Z,23.00
2018-11-13T04:30:59.157Z,22.17
2018-11-13T04:33:27.848Z,21.03
2018-11-13T04:36:01.260Z,24.90
2018-11-13T04:38:30.958Z,22.90
2018-11-13T04:40:59.641Z,24.90
2018-11-13T04:43:28.333Z,19.57
2018-11-13T04:45:57.213Z,24.47
2018-11-13T04:48:25.825Z,23.03
2018-11-13T04:50:54.721Z,25.33
2018-11-13T04:53:23.774Z,20.03
2018-11-13T04:55:52.466Z,22.47
2018-11-13T04:58:24.735Z,22.47
2018-11-13T05:00:54.706Z,24.13
2018-11-13T05:03:23.370Z,25.40
2018-11-13T05:05:53.728Z,20.80
2018-11-13T05:08:23.977Z,25.33
2018-11-13T05:10:52.875Z,17.93
2018-11-13T05:13:21.565Z,21.23
2018-11-13T05:15:54.016Z,19.27
2018-11-13T05:18:24.043Z,22.03
2018-11-13T05:20:54.124Z,21.67
2018-11-13T05:23:28.127Z,17.47
2018-11-13T05:25:57.083Z,21.57
2018-11-13T05:28:25.775Z,21.17
2018-11-13T05:30:54.670Z,19.20
2018-11-13T05:33:25.297Z,17.93
2018-11-13T05:35:54.018Z,22.47
2018-11-13T05:38:22.924Z,18.43
2018-11-13T05:40:51.795Z,25.70
2018-11-13T05:43:26.738Z,18.00
2018-11-13T05:45:57.888Z,17.03
2018-11-13T05:48:30.592Z,17.30
2018-11-13T05:50:59.461Z,18.57
2018-11-13T05:53:29.517Z,21.83
2018-11-13T05:55:58.734Z,22.80
2018-11-13T05:58:27.449Z,13.70
2018-11-13T06:00:56.279Z,15.37
2018-11-13T06:03:25.251Z,15.97
2018-11-13T06:05:57.641Z,15.67
2018-11-13T06:08:26.439Z,12.80
2018-11-13T06:10:55.159Z,17.47
2018-11-13T06:13:24.536Z,18.37
2018-11-13T06:15:54.332Z,15.47
2018-11-13T06:18:30.285Z,16.40
2018-11-13T06:20:59.231Z,15.20
2018-11-13T06:23:28.697Z,16.20
2018-11-13T06:25:57.599Z,17.50
2018-11-13T06:28:26.449Z,12.93
2018-11-13T06:31:00.176Z,18.43
2018-11-13T06:33:33.754Z,22.00
2018-11-13T06:36:02.717Z,15.13
2018-11-13T06:38:31.931Z,15.47
2018-11-13T06:41:01.440Z,17.83
2018-11-13T06:43:30.552Z,13.17
2018-11-13T06:45:59.258Z,14.60
2018-11-13T06:48:27.845Z,18.67
2018-11-13T06:50:56.651Z,15.20
2018-11-13T06:53:26.515Z,16.63
2018-11-13T06:55:58.955Z,19.67
2018-11-13T06:58:27.891Z,15.00
2018-11-13T07:00:56.724Z,17.87
2018-11-13T07:03:25.647Z,16.97
2018-11-13T07:05:54.632Z,16.50
2018-11-13T07:08:23.827Z,12.43
2018-11-13T07:10:52.610Z,15.20
2018-11-13T07:13:21.581Z,12.73
2018-11-13T07:15:50.199Z,14.10
2018-11-13T07:18:18.883Z,8.60
2018-11-13T07:20:47.665Z,17.43
2018-11-13T07:23:16.922Z,13.23
2018-11-13T07:25:46.022Z,6.87
2018-11-13T07:28:15.857Z,12.13
2018-11-13T07:30:44.554Z,9.57
2018-11-13T07:33:13.771Z,9.20
2018-11-13T07:35:45.864Z,10.03
2018-11-13T07:38:15.784Z,9.40
2018-11-13T07:40:45.981Z,13.93
2018-11-13T07:43:14.942Z,7.90
2018-11-13T07:45:43.840Z,7.60
2018-11-13T07:48:17.350Z,7.53
2018-11-13T07:50:46.535Z,6.60
2018-11-13T07:53:17.518Z,9.77
2018-11-13T07:55:49.814Z,8.67
2018-11-13T07:58:20.322Z,4.23
2018-11-13T08:00:49.344Z,4.77
2018-11-13T08:03:34.068Z,6.67
2018-11-13T08:06:03.652Z,7.83
2018-11-13T08:08:32.420Z,5.67
2018-11-13T08:11:02.307Z,6.60
2018-11-13T08:13:31.890Z,4.53
2018-11-13T08:16:01.251Z,4.73
2018-11-13T08:18:30.157Z,3.17
2018-11-13T08:21:06.536Z,3.07
2018-11-13T08:23:50.227Z,3.33
2018-11-13T08:26:22.894Z,2.57
2018-11-13T08:28:52.163Z,3.13
2018-11-13T08:31:21.056Z,6.93
2018-11-13T08:33:50.265Z,5.80
2018-11-13T08:36:19.258Z,3.70
2018-11-13T08:38:55.077Z,6.73
2018-11-13T08:41:24.051Z,6.20
2018-11-13T08:43:53.044Z,5.17
2018-11-13T08:46:21.659Z,4.43
2018-11-13T08:48:51.726Z,11.80
2018-11-13T08:51:20.432Z,5.53
2018-11-13T08:53:48.977Z,4.67
2018-11-13T08:58:47.821Z,6.00
2018-11-13T09:01:18.043Z,3.57
2018-11-13T09:03:50.368Z,2.47
2018-11-13T09:06:19.492Z,3.67
2018-11-13T09:08:48.239Z,3.67
2018-11-13T09:11:17.542Z,3.73
2018-11-13T09:13:46.972Z,4.43
2018-11-13T09:16:16.367Z,6.17
2018-11-13T09:18:45.207Z,5.67
2018-11-13T09:21:14.377Z,2.77
2018-11-13T09:23:44.439Z,2.83
2018-11-13T09:26:13.181Z,2.80
2018-11-13T09:28:43.436Z,6.17
2018-11-13T09:31:12.443Z,5.83
2018-11-13T09:33:55.265Z,5.53
2018-11-13T09:36:24.771Z,5.50
2018-11-13T09:38:53.917Z,2.77
2018-11-13T09:41:23.063Z,1.90
2018-11-13T09:43:52.612Z,4.30
2018-11-13T09:46:21.383Z,3.03
2018-11-13T09:48:52.342Z,3.80
2018-11-13T09:51:21.197Z,5.23
2018-11-13T09:53:51.273Z,2.87
2018-11-13T09:56:20.048Z,4.80
2018-11-13T09:58:49.243Z,5.57
2018-11-13T10:01:18.409Z,5.40
2018-11-13T10:03:47.849Z,4.00
2018-11-13T10:06:16.262Z,4.70
2018-11-13T10:08:45.108Z,8.20
2018-11-13T10:11:16.393Z,2.60
2018-11-13T10:13:45.472Z,3.37
2018-11-13T10:16:14.642Z,6.17
2018-11-13T10:18:43.589Z,2.87
2018-11-13T10:21:12.537Z,5.73
2018-11-13T10:23:41.396Z,6.03
2018-11-13T10:26:10.273Z,4.93
2018-11-13T10:28:38.946Z,9.33
2018-11-13T10:31:07.915Z,5.47
2018-11-13T10:33:36.720Z,7.40
2018-11-13T10:36:06.155Z,6.03
2018-11-13T10:38:34.868Z,7.77
2018-11-13T10:41:03.561Z,8.13
2018-11-13T10:43:33.056Z,6.73
2018-11-13T10:46:02.207Z,9.40
2018-11-13T10:48:31.218Z,8.07
2018-11-13T10:51:03.586Z,3.80
2018-11-13T10:53:32.520Z,7.23
2018-11-13T10:56:02.263Z,5.87
2018-11-13T10:58:32.823Z,5.67
2018-11-13T11:01:07.328Z,3.83
2018-11-13T11:03:46.787Z,5.70
2018-11-13T11:06:15.693Z,5.97
2018-11-13T11:08:44.926Z,4.73
2018-11-13T11:11:14.037Z,7.03
2018-11-13T11:13:43.499Z,9.97
2018-11-13T11:16:13.737Z,8.13
2018-11-13T11:18:43.020Z,9.93
2018-11-13T11:21:12.295Z,6.57
2018-11-13T11:23:41.345Z,7.60
2018-11-13T11:26:14.254Z,5.40
2018-11-13T11:28:43.542Z,12.63
2018-11-13T11:31:20.962Z,7.83
2018-11-13T11:33:49.766Z,8.97
2018-11-13T11:36:18.711Z,10.37
2018-11-13T11:38:47.660Z,8.43
2018-11-13T11:41:17.180Z,10.77
2018-11-13T11:43:46.505Z,9.80
2018-11-13T11:46:15.812Z,7.97
2018-11-13T11:48:45.006Z,7.83
2018-11-13T11:51:14.416Z,6.23
2018-11-13T11:53:43.248Z,17.40
2018-11-13T11:56:11.955Z,10.63
2018-11-13T11:58:40.813Z,7.07
2018-11-13T12:01:10.045Z,11.10
2018-11-13T12:03:39.449Z,10.00
2018-11-13T12:06:08.290Z,7.33
2018-11-13T12:08:37.513Z,10.27
2018-11-13T12:11:06.649Z,6.70
2018-11-13T12:13:35.855Z,9.90
2018-11-13T12:16:05.557Z,9.53
2018-11-13T12:18:38.763Z,10.27
2018-11-13T12:21:08.580Z,9.03
2018-11-13T12:23:37.968Z,8.90
2018-11-13T12:26:07.580Z,10.03
2018-11-13T12:28:38.073Z,7.80
2018-11-13T12:31:08.640Z,12.27
2018-11-13T12:33:37.899Z,12.27
2018-11-13T12:36:15.881Z,11.27
2018-11-13T12:38:48.915Z,13.07
2018-11-13T12:44:11.344Z,12.87
2018-11-13T12:49:37.900Z,14.30
2018-11-13T12:52:13.295Z,15.87
2018-11-13T12:54:43.637Z,10.50
2018-11-13T12:57:14.229Z,15.67
2018-11-13T12:59:44.042Z,11.73
2018-11-13T13:02:13.227Z,14.47
2018-11-13T13:04:42.183Z,12.53
2018-11-13T13:07:11.348Z,10.03
2018-11-13T13:09:40.683Z,18.47
2018-11-13T13:12:11.029Z,13.07
2018-11-13T13:14:40.772Z,14.90
2018-11-13T13:17:10.145Z,10.43
2018-11-13T13:19:39.174Z,8.57
2018-11-13T13:22:09.868Z,14.57
2018-11-13T13:24:41.854Z,13.10
2018-11-13T13:27:12.677Z,12.30
2018-11-13T13:29:42.820Z,10.47
2018-11-13T13:32:17.603Z,18.00
2018-11-13T13:35:01.244Z,14.73
2018-11-13T13:37:32.213Z,11.40
2018-11-13T13:42:31.341Z,14.50
2018-11-13T13:45:10.422Z,14.23
2018-11-13T13:47:46.909Z,10.70
2018-11-13T13:51:20.727Z,12.53
2018-11-13T13:53:56.522Z,11.00
2018-11-13T13:56:27.076Z,18.70
2018-11-13T13:58:57.724Z,17.93
2018-11-13T14:01:27.289Z,12.37
2018-11-13T14:03:56.806Z,12.67
2018-11-13T14:06:26.155Z,11.43
2018-11-13T14:08:55.516Z,11.77
2018-11-13T14:11:25.000Z,11.00
2018-11-13T14:13:54.901Z,12.07
2018-11-13T14:16:23.874Z,14.20
2018-11-13T14:18:52.965Z,10.27
2018-11-13T14:21:21.929Z,15.90
2018-11-13T14:23:51.054Z,14.30
2018-11-13T14:26:36.204Z,15.00
2018-11-13T14:29:05.542Z,14.27
2018-11-13T14:31:34.957Z,10.93
2018-11-13T14:34:04.045Z,13.43
2018-11-13T14:36:33.172Z,14.70
2018-11-13T14:39:02.757Z,12.07
2018-11-13T14:41:32.200Z,12.20
2018-11-13T14:44:01.754Z,9.47
2018-11-13T14:46:30.782Z,15.47
2018-11-13T14:49:00.010Z,12.70
2018-11-13T14:51:29.458Z,12.67
2018-11-13T14:54:08.276Z,15.50
2018-11-13T14:56:42.733Z,13.87
2018-11-13T14:59:11.752Z,16.97
2018-11-13T15:01:40.531Z,15.37
2018-11-13T15:04:09.724Z,13.57
2018-11-13T15:06:38.975Z,11.33
2018-11-13T15:09:14.590Z,14.83
2018-11-13T15:11:44.753Z,13.47
2018-11-13T15:14:13.734Z,16.73
2018-11-13T15:16:42.841Z,12.20
2018-11-13T15:19:12.927Z,12.90
2018-11-13T15:21:41.871Z,13.93
2018-11-13T15:24:10.767Z,19.20
2018-11-13T15:26:39.583Z,9.80
2018-11-13T15:29:08.597Z,17.70
2018-11-13T15:31:37.689Z,11.20
2018-11-13T15:34:06.508Z,15.13
2018-11-13T15:36:35.591Z,13.77
2018-11-13T15:39:06.980Z,13.13
2018-11-13T15:41:35.920Z,11.50
2018-11-13T15:44:05.424Z,17.47
2018-11-13T15:46:34.324Z,11.03
2018-11-13T15:49:03.301Z,15.40
2018-11-13T15:51:32.523Z,11.20
2018-11-13T15:54:01.813Z,11.80
2018-11-13T15:56:31.258Z,14.77
2018-11-13T15:58:59.876Z,20.07
2018-11-13T16:01:28.949Z,15.03
2018-11-13T16:03:57.924Z,13.50
2018-11-13T16:06:27.082Z,11.60
2018-11-13T16:08:55.643Z,17.33
2018-11-13T16:11:25.375Z,13.73
2018-11-13T16:13:54.004Z,13.60
2018-11-13T16:16:22.735Z,14.33
2018-11-13T16:18:51.508Z,12.60
2018-11-13T16:21:20.730Z,16.97
2018-11-13T16:23:49.834Z,13.67
2018-11-13T16:26:19.287Z,14.57
2018-11-13T16:28:48.218Z,12.20
2018-11-13T16:31:17.269Z,13.50
2018-11-13T16:33:46.116Z,15.57
2018-11-13T16:36:15.708Z,13.93
2018-11-13T16:38:44.763Z,12.77
2018-11-13T16:41:13.748Z,18.33
2018-11-13T16:43:42.413Z,14.90
2018-11-13T16:46:11.413Z,13.63
2018-11-13T16:48:40.204Z,17.73
2018-11-13T16:51:09.281Z,15.80
2018-11-13T16:53:43.244Z,16.03
2018-11-13T16:56:11.871Z,15.33
2018-11-13T16:58:41.746Z,14.50
2018-11-13T17:01:11.008Z,15.73
2018-11-13T17:03:39.754Z,16.97
2018-11-13T17:06:08.649Z,22.03
2018-11-13T17:08:37.619Z,23.97
2018-11-13T17:11:13.644Z,21.93
2018-11-13T17:13:43.447Z,8.93
2018-11-13T17:16:12.576Z,21.57
2018-11-13T17:18:41.964Z,20.60
2018-11-13T17:21:10.871Z,15.37
2018-11-13T17:23:44.398Z,22.67
2018-11-13T17:26:14.179Z,16.40
2018-11-13T17:28:43.158Z,22.00
2018-11-13T17:31:11.980Z,24.63
2018-11-13T17:33:42.519Z,13.53
2018-11-13T17:36:11.187Z,22.70
2018-11-13T17:38:40.155Z,16.47
2018-11-13T17:41:09.086Z,17.40
2018-11-13T17:43:38.180Z,12.07
2018-11-13T17:46:17.961Z,18.47
2018-11-13T17:48:48.271Z,22.10
2018-11-13T17:51:16.924Z,21.67
2018-11-13T17:59:31.519Z,18.63
2018-11-13T18:02:00.247Z,25.40
2018-11-13T18:04:29.256Z,19.40
2018-11-13T18:06:58.041Z,12.53
2018-11-13T18:09:27.471Z,20.07
2018-11-13T18:11:56.416Z,17.73
2018-11-13T18:14:26.062Z,20.33
2018-11-13T18:16:54.936Z,23.83
2018-11-13T18:19:24.054Z,18.90
2018-11-13T18:21:53.052Z,26.40
2018-11-13T18:24:22.383Z,19.80
2018-11-13T18:26:51.365Z,18.00
2018-11-13T18:29:20.893Z,16.23
2018-11-13T18:31:50.760Z,18.83
2018-11-13T18:34:19.646Z,18.17
2018-11-13T18:36:48.415Z,13.47
2018-11-13T18:39:22.412Z,22.40
2018-11-13T18:41:51.636Z,21.63
2018-11-13T18:44:21.699Z,25.33
2018-11-13T18:46:50.737Z,17.13
2018-11-13T18:49:19.743Z,22.10
2018-11-13T18:51:49.111Z,13.20
2018-11-13T18:54:18.275Z,19.30
2018-11-13T18:56:49.202Z,20.20
2018-11-13T18:59:18.635Z,17.80
2018-11-13T19:01:47.094Z,17.03
2018-11-13T19:04:16.299Z,20.40
2018-11-13T19:06:45.165Z,10.60
2018-11-13T19:09:14.668Z,15.90
2018-11-13T19:11:43.893Z,10.97
2018-11-13T19:14:12.918Z,15.80
2018-11-13T19:16:43.049Z,12.40
2018-11-13T19:19:12.168Z,10.03
2018-11-13T19:21:41.269Z,12.50
2018-11-13T19:24:11.746Z,17.90
2018-11-13T19:26:41.751Z,13.60
2018-11-13T19:29:10.748Z,15.13
2018-11-13T19:31:41.437Z,13.60
2018-11-13T19:34:10.550Z,16.27
2018-11-13T19:36:39.829Z,15.57
2018-11-13T19:39:11.694Z,10.37
2018-11-13T19:41:40.442Z,14.97
2018-11-13T19:44:14.515Z,16.90
2018-11-13T19:46:43.740Z,18.50
2018-11-13T19:49:12.753Z,14.07
2018-11-13T19:51:43.845Z,18.83
2018-11-13T19:54:13.608Z,13.70
2018-11-13T19:56:44.767Z,15.07
2018-11-13T19:59:14.483Z,12.27
2018-11-13T20:01:45.389Z,15.83
2018-11-13T20:04:14.936Z,17.07
2018-11-13T20:06:44.470Z,14.73
2018-11-13T20:09:15.459Z,18.70
2018-11-13T20:11:45.557Z,13.73
2018-11-13T20:14:15.934Z,13.80
2018-11-13T20:16:45.280Z,12.70
2018-11-13T20:19:15.425Z,12.27
2018-11-13T20:21:44.960Z,17.17
2018-11-13T20:24:14.140Z,15.73
2018-11-13T20:26:45.398Z,13.43
2018-11-13T20:29:15.851Z,13.63
2018-11-13T20:31:44.930Z,16.33
2018-11-13T20:34:13.655Z,16.50
2018-11-13T20:36:42.806Z,15.77
2018-11-13T20:39:14.822Z,17.43
2018-11-13T20:41:44.812Z,13.63
2018-11-13T20:44:14.617Z,12.97
2018-11-13T20:46:43.786Z,17.20
2018-11-13T20:49:12.641Z,18.13
2018-11-13T20:51:42.727Z,16.73
2018-11-13T20:54:11.772Z,18.37
2018-11-13T20:56:43.029Z,16.67
2018-11-13T20:59:13.278Z,13.83
2018-11-13T21:01:43.372Z,13.47
2018-11-13T21:04:12.943Z,18.27
2018-11-13T21:06:42.718Z,19.10
2018-11-13T21:09:11.340Z,15.40
2018-11-13T21:11:41.323Z,13.87
2018-11-13T21:14:10.140Z,16.33
2018-11-13T21:16:38.900Z,13.50
2018-11-13T21:19:07.783Z,19.33
2018-11-13T21:21:36.799Z,11.13
2018-11-13T21:24:05.957Z,13.80
2018-11-13T21:26:34.691Z,18.17
2018-11-13T21:29:03.235Z,13.23
2018-11-13T21:31:34.779Z,15.00
2018-11-13T21:34:03.543Z,12.57
2018-11-13T21:36:33.666Z,15.63
2018-11-13T21:39:02.333Z,17.07
2018-11-13T21:41:32.099Z,15.43
2018-11-13T21:44:00.727Z,17.10
2018-11-13T21:46:30.100Z,10.90
2018-11-13T21:49:00.145Z,17.43
2018-11-13T21:51:28.708Z,11.00
2018-11-13T21:53:57.475Z,15.40
2018-11-13T21:56:26.388Z,14.10
2018-11-13T21:58:55.801Z,17.43
2018-11-13T22:01:25.291Z,17.97
2018-11-13T22:03:54.347Z,14.87
2018-11-13T22:06:23.454Z,17.87
2018-11-13T22:08:52.936Z,12.20
2018-11-13T22:11:22.428Z,20.77
2018-11-13T22:13:51.909Z,13.47
2018-11-13T22:16:21.258Z,11.43
2018-11-13T22:18:50.352Z,20.70
2018-11-13T22:21:19.121Z,20.63
2018-11-13T22:23:48.532Z,18.70
2018-11-13T22:26:22.490Z,20.60
2018-11-13T22:28:52.593Z,11.70
2018-11-13T22:31:21.684Z,11.27
2018-11-13T22:33:51.152Z,14.67
2018-11-13T22:36:20.408Z,18.90
2018-11-13T22:38:49.348Z,13.83
2018-11-13T22:41:18.500Z,13.67
2018-11-13T22:43:47.503Z,17.30
2018-11-13T22:46:16.269Z,14.07
2018-11-13T22:48:46.025Z,20.63
2018-11-13T22:51:14.941Z,15.53
2018-11-13T22:53:44.911Z,18.37
2018-11-13T22:56:13.594Z,16.07
2018-11-13T22:58:42.565Z,13.67
2018-11-13T23:01:11.340Z,16.83
2018-11-13T23:03:40.620Z,23.23
2018-11-13T23:06:34.278Z,15.60
2018-11-13T23:09:05.852Z,17.30
2018-11-13T23:11:34.576Z,22.47
2018-11-13T23:14:03.382Z,18.73
2018-11-13T23:16:32.232Z,25.23
2018-11-13T23:19:01.516Z,23.43
2018-11-13T23:21:30.329Z,18.20
2018-11-13T23:23:59.032Z,18.20
2018-11-13T23:26:27.909Z,22.00
2018-11-13T23:28:56.724Z,25.60
2018-11-13T23:31:25.183Z,21.13
2018-11-13T23:33:54.425Z,12.77
2018-11-13T23:36:22.809Z,17.87
2018-11-13T23:38:51.580Z,18.00
2018-11-13T23:41:20.631Z,17.37
2018-11-13T23:43:49.609Z,22.40
2018-11-13T23:46:18.321Z,15.03
2018-11-13T23:48:46.966Z,18.07
2018-11-13T23:51:15.864Z,17.23
2018-11-13T23:53:45.224Z,17.63
2018-11-13T23:56:14.344Z,27.03
2018-11-13T23:58:42.793Z,19.03
